Time;durP1;ratioP1;P1;durP2;ratioP2;P2;SDS_P1;SDS_P2;PMS_P1;PMS_P2;Temp;Humidity;BMP_temperature;BMP_pressure;BME280_temperature;BME280_humidity;BME280_pressure;Samples;Min_cycle;Max_cycle;Signal;HPM_P1;HPM_P2
2022/02/01 00:00:18;;;;;;;1.40;0.77;;;7.20;65.80;;;;;;6281595;28;20025;-69
2022/02/01 00:03:20;;;;;;;;;;;7.20;65.00;;;;;;6272011;28;20052;-69
2022/02/01 00:06:56;;;;;;;3.83;0.90;;;7.30;64.30;;;;;;6252727;28;19960;-70
2022/02/01 00:39:31;;;;;;;7.22;1.45;;;7.80;58.40;;;;;;6128191;28;20427;-71
2022/02/01 00:42:32;;;;;;;4.05;1.05;;;7.80;57.60;;;;;;6133390;28;20133;-70
2022/02/01 00:45:33;;;;;;;1.13;0.52;;;7.80;58.00;;;;;;6160626;28;20050;-70
2022/02/01 00:48:35;;;;;;;0.95;0.32;;;7.90;57.20;;;;;;6175258;28;20047;-70
2022/02/01 00:51:36;;;;;;;2.72;0.88;;;7.80;56.60;;;;;;6228094;28;20461;-70
2022/02/01 00:54:41;;;;;;;0.65;0.40;;;7.90;56.50;;;;;;6250965;28;20528;-69
2022/02/01 00:57:42;;;;;;;4.40;0.95;;;7.90;56.00;;;;;;6245896;28;20450;-70
2022/02/01 01:00:43;;;;;;;4.40;0.90;;;7.90;55.50;;;;;;6260676;28;20091;-70
2022/02/01 01:03:47;;;;;;;0.28;0.28;;;7.90;55.20;;;;;;6262699;28;20047;-70
2022/02/01 01:06:48;;;;;;;1.25;0.70;;;7.90;54.90;;;;;;6266440;28;20021;-69
2022/02/01 01:09:49;;;;;;;3.08;0.98;;;7.90;55.70;;;;;;6251903;28;20055;-69
2022/02/01 01:13:08;;;;;;;3.28;0.80;;;7.90;55.20;;;;;;6266543;28;20862;-70
2022/02/01 01:55:50;;;;;;;5.47;0.80;;;7.90;53.80;;;;;;6269487;28;20036;-70
2022/02/01 01:58:51;;;;;;;4.57;0.70;;;7.90;53.70;;;;;;6261823;28;20033;-69
2022/02/01 02:01:53;;;;;;;3.70;1.23;;;7.90;53.40;;;;;;6268820;28;20032;-69
2022/02/01 02:04:54;;;;;;;3.67;0.98;;;7.90;53.70;;;;;;6261343;28;20174;-69
2022/02/01 02:07:55;;;;;;;2.58;0.70;;;7.90;53.70;;;;;;6258772;28;20564;-69
2022/02/01 02:17:20;;;;;;;10.60;1.65;;;7.80;54.30;;;;;;6263318;28;20369;-69
2022/02/01 02:20:22;;;;;;;1.70;0.85;;;7.80;54.70;;;;;;6269435;28;20020;-70
2022/02/01 02:23:23;;;;;;;2.47;0.82;;;7.80;54.80;;;;;;6257571;28;20021;-69
2022/02/01 02:26:25;;;;;;;8.85;1.52;;;7.80;55.00;;;;;;6258569;28;20151;-69
2022/02/01 02:29:27;;;;;;;5.95;1.02;;;7.80;55.00;;;;;;6261802;28;20055;-69
2022/02/01 02:32:28;;;;;;;5.72;1.10;;;7.80;55.00;;;;;;6257957;28;20099;-70
2022/02/01 02:35:33;;;;;;;7.63;0.80;;;7.80;55.20;;;;;;6272832;28;20033;-70
2022/02/01 02:38:48;;;;;;;6.50;0.90;;;7.70;55.20;;;;;;6254646;28;20553;-68
2022/02/01 02:42:12;;;;;;;3.22;1.35;;;7.70;55.20;;;;;;6270187;28;20094;-69
2022/02/01 02:45:15;;;;;;;5.70;0.82;;;7.70;55.30;;;;;;6271846;28;20040;-69
2022/02/01 02:48:16;;;;;;;7.78;1.23;;;7.70;55.30;;;;;;6253244;28;20034;-69
2022/02/01 02:51:18;;;;;;;2.03;1.02;;;7.70;55.40;;;;;;6244567;28;20029;-69
2022/02/01 02:54:21;;;;;;;9.40;1.67;;;7.70;55.50;;;;;;6248591;28;20483;-71
2022/02/01 02:57:22;;;;;;;11.73;1.40;;;7.70;55.50;;;;;;6251403;28;20025;-68
2022/02/01 03:00:23;;;;;;;0.93;0.57;;;7.70;55.60;;;;;;6266415;28;20025;-69
2022/02/01 03:03:24;;;;;;;9.85;1.50;;;7.70;55.70;;;;;;6261601;28;20048;-68
2022/02/01 03:06:25;;;;;;;1.90;0.82;;;7.70;55.80;;;;;;6233067;28;20025;-71
2022/02/01 03:09:26;;;;;;;7.47;0.68;;;7.60;55.70;;;;;;6241776;28;20504;-69
2022/02/01 03:12:46;;;;;;;11.70;2.25;;;7.70;55.70;;;;;;6263751;28;20082;-69
2022/02/01 03:15:57;;;;;;;4.78;0.95;;;7.60;55.50;;;;;;6249580;28;20047;-69
2022/02/01 03:22:20;;;;;;;2.05;0.82;;;7.60;55.80;;;;;;6271101;28;20037;-68
2022/02/01 03:25:21;;;;;;;1.88;0.77;;;7.60;55.60;;;;;;6242199;28;20041;-67
2022/02/01 03:28:22;;;;;;;3.10;0.85;;;7.50;55.40;;;;;;6285265;28;20024;-69
2022/02/01 03:31:23;;;;;;;2.10;0.93;;;7.50;55.30;;;;;;6254666;28;20082;-69
2022/02/01 03:34:24;;;;;;;4.32;1.40;;;7.50;55.30;;;;;;6273989;28;20032;-71
2022/02/01 03:37:25;;;;;;;4.15;1.30;;;7.50;55.30;;;;;;6272303;28;20116;-69
2022/02/01 03:40:25;;;;;;;7.10;1.00;;;7.50;55.30;;;;;;6262384;28;20029;-69
2022/02/01 03:43:26;;;;;;;4.80;1.13;;;7.50;55.40;;;;;;6258627;28;20120;-68
2022/02/01 03:46:27;;;;;;;6.60;0.75;;;7.50;55.40;;;;;;6255951;28;20032;-69
2022/02/01 03:49:31;;;;;;;7.05;1.33;;;7.50;55.30;;;;;;6256498;28;20463;-70
2022/02/01 03:52:31;;;;;;;3.67;1.13;;;7.50;55.30;;;;;;6274952;28;20396;-68
2022/02/01 03:55:32;;;;;;;7.22;1.05;;;7.50;55.10;;;;;;6274704;28;20029;-68
2022/02/01 03:58:33;;;;;;;6.57;0.80;;;7.50;55.30;;;;;;6268705;28;20626;-69
2022/02/01 04:01:34;;;;;;;2.72;0.85;;;7.50;55.30;;;;;;6244806;28;20028;-68
2022/02/01 04:04:35;;;;;;;5.63;1.13;;;7.50;55.30;;;;;;6270515;28;20040;-69
2022/02/01 04:07:36;;;;;;;4.20;1.10;;;7.50;55.20;;;;;;6263545;28;20021;-69
2022/02/01 04:10:37;;;;;;;3.67;0.85;;;7.50;55.90;;;;;;6240460;28;20039;-69
2022/02/01 04:13:38;;;;;;;3.20;1.08;;;7.50;55.30;;;;;;6264339;28;20590;-68
2022/02/01 04:16:39;;;;;;;5.30;0.90;;;7.50;55.10;;;;;;6253331;28;20033;-68
2022/02/01 04:19:41;;;;;;;5.75;0.95;;;7.40;55.20;;;;;;6256372;28;20087;-68
2022/02/01 04:22:42;;;;;;;2.35;0.60;;;7.40;55.30;;;;;;6272528;28;20049;-69
2022/02/01 04:25:43;;;;;;;5.25;0.90;;;7.40;55.30;;;;;;6231598;28;20126;-68
2022/02/01 04:28:44;;;;;;;2.35;0.75;;;7.40;55.20;;;;;;6245846;28;21350;-69
2022/02/01 04:31:45;;;;;;;0.38;0.35;;;7.40;55.40;;;;;;6250033;28;21764;-69
2022/02/01 04:34:50;;;;;;;5.18;0.95;;;7.40;55.50;;;;;;6240599;28;20496;-69
2022/02/01 04:37:54;;;;;;;7.97;0.88;;;7.40;55.50;;;;;;6233507;28;20029;-68
2022/02/01 04:40:55;;;;;;;4.60;0.90;;;7.40;55.60;;;;;;6228185;28;20064;-70
2022/02/01 04:43:59;;;;;;;4.57;1.17;;;7.40;55.60;;;;;;6218055;28;20029;-67
2022/02/01 04:47:00;;;;;;;5.28;1.05;;;7.40;55.60;;;;;;6216554;28;20044;-69
2022/02/01 04:50:06;;;;;;;16.25;1.20;;;7.40;55.50;;;;;;6207239;28;20055;-68
2022/02/01 04:53:07;;;;;;;3.60;1.05;;;7.40;55.50;;;;;;6200754;28;20039;-69
2022/02/01 04:56:08;;;;;;;2.75;1.00;;;7.40;55.40;;;;;;6205922;28;20598;-68
2022/02/01 04:59:09;;;;;;;3.33;0.80;;;7.40;55.50;;;;;;6215705;28;20028;-68
2022/02/01 05:02:10;;;;;;;5.30;0.68;;;7.40;55.60;;;;;;6216721;28;20041;-69
2022/02/01 05:05:11;;;;;;;4.95;0.80;;;7.40;55.50;;;;;;6228378;28;20794;-69
2022/02/01 05:08:13;;;;;;;4.93;1.17;;;7.40;55.40;;;;;;6232745;28;20036;-68
2022/02/01 05:11:14;;;;;;;7.47;0.88;;;7.30;55.40;;;;;;6223174;28;20052;-68
2022/02/01 05:14:20;;;;;;;4.82;0.90;;;7.40;55.40;;;;;;6251255;28;20025;-68
2022/02/01 05:17:23;;;;;;;5.32;0.90;;;7.30;55.40;;;;;;6261508;28;20020;-70
2022/02/01 05:20:39;;;;;;;3.60;1.08;;;7.30;55.50;;;;;;6244012;28;20032;-68
2022/02/01 05:23:40;;;;;;;5.63;0.77;;;7.30;55.50;;;;;;6246206;28;20025;-68
2022/02/01 05:26:42;;;;;;;1.30;0.90;;;7.30;55.50;;;;;;6262102;28;20048;-68
2022/02/01 05:29:43;;;;;;;1.90;0.80;;;7.30;55.40;;;;;;6264684;28;20012;-69
2022/02/01 05:32:44;;;;;;;4.20;1.08;;;7.30;55.40;;;;;;6262660;28;20039;-68
2022/02/01 05:35:45;;;;;;;3.25;1.13;;;7.30;55.40;;;;;;6240207;28;20047;-69
2022/02/01 05:38:49;;;;;;;1.85;1.02;;;7.20;55.10;;;;;;6254970;28;20025;-68
2022/02/01 05:41:52;;;;;;;2.70;0.90;;;7.20;55.10;;;;;;6271258;28;20107;-68
2022/02/01 05:44:53;;;;;;;2.97;1.08;;;7.20;55.10;;;;;;6254133;28;20025;-68
2022/02/01 05:47:55;;;;;;;6.25;0.82;;;7.20;55.10;;;;;;6256409;28;20350;-69
2022/02/01 05:50:57;;;;;;;6.60;1.15;;;7.20;55.20;;;;;;6260948;28;20048;-69
2022/02/01 05:53:58;;;;;;;4.22;1.13;;;7.20;55.10;;;;;;6245148;28;20029;-69
2022/02/01 05:56:59;;;;;;;3.38;0.82;;;7.10;54.90;;;;;;6273079;28;20103;-68
2022/02/01 05:59:59;;;;;;;0.82;0.65;;;7.10;54.90;;;;;;6270674;28;20033;-68
2022/02/01 06:03:01;;;;;;;1.02;0.55;;;7.10;54.90;;;;;;6251245;28;20072;-69
2022/02/01 06:06:02;;;;;;;3.50;0.70;;;7.10;54.90;;;;;;6276297;28;20039;-69
2022/02/01 06:09:03;;;;;;;3.63;0.90;;;7.10;55.10;;;;;;6269731;28;20014;-70
2022/02/01 06:12:05;;;;;;;9.32;1.20;;;7.00;55.10;;;;;;6272656;28;20032;-70
2022/02/01 06:15:06;;;;;;;12.68;1.58;;;7.00;55.10;;;;;;6272358;28;20029;-70
2022/02/01 06:18:07;;;;;;;2.38;0.70;;;7.10;55.00;;;;;;6268685;28;20090;-70
2022/02/01 06:21:08;;;;;;;3.72;1.40;;;7.10;55.10;;;;;;6267976;28;20029;-70
2022/02/01 06:24:09;;;;;;;8.77;1.50;;;7.10;54.90;;;;;;6260456;28;20079;-70
2022/02/01 06:27:10;;;;;;;8.48;2.15;;;7.10;55.00;;;;;;6266693;28;20656;-70
2022/02/01 06:30:11;;;;;;;3.45;0.60;;;7.10;55.00;;;;;;6262797;28;20039;-72
2022/02/01 06:33:15;;;;;;;4.95;1.00;;;7.10;55.00;;;;;;6266074;28;20028;-71
2022/02/01 06:36:16;;;;;;;9.50;1.05;;;7.10;54.90;;;;;;6263013;28;20031;-70
2022/02/01 06:39:16;;;;;;;2.78;0.88;;;7.10;54.90;;;;;;6241713;28;20025;-69
2022/02/01 06:42:17;;;;;;;10.77;1.92;;;7.10;54.80;;;;;;6262482;28;20130;-69
2022/02/01 06:45:18;;;;;;;4.70;1.25;;;7.10;54.80;;;;;;6259958;28;20039;-70
2022/02/01 06:48:19;;;;;;;6.97;1.40;;;7.10;54.80;;;;;;6262163;28;20033;-70
2022/02/01 06:51:20;;;;;;;5.72;1.50;;;7.10;54.80;;;;;;6264939;28;20037;-71
2022/02/01 06:54:21;;;;;;;3.20;0.98;;;7.10;55.00;;;;;;6264141;28;20028;-70
2022/02/01 06:57:22;;;;;;;5.45;1.10;;;7.20;55.00;;;;;;6266907;28;20036;-70
2022/02/01 07:00:23;;;;;;;4.50;1.13;;;7.20;55.00;;;;;;6271778;28;20060;-70
2022/02/01 07:03:24;;;;;;;10.85;1.40;;;7.20;54.80;;;;;;6268977;28;20048;-70
2022/02/01 07:06:25;;;;;;;2.67;1.08;;;7.20;54.70;;;;;;6272485;28;20033;-70
2022/02/01 07:09:30;;;;;;;6.07;1.02;;;7.20;54.60;;;;;;6266750;28;20155;-70
2022/02/01 07:12:31;;;;;;;3.50;1.02;;;7.30;54.60;;;;;;6265784;28;20401;-70
2022/02/01 07:15:32;;;;;;;3.60;1.13;;;7.30;54.40;;;;;;6268518;28;20037;-72
2022/02/01 07:18:33;;;;;;;1.13;0.65;;;7.30;54.30;;;;;;6267608;28;20035;-70
2022/02/01 07:21:35;;;;;;;3.15;1.50;;;7.30;54.40;;;;;;6265337;28;20182;-71
2022/02/01 07:24:48;;;;;;;6.05;0.73;;;7.40;54.40;;;;;;6270604;28;20036;-70
2022/02/01 07:27:50;;;;;;;7.22;1.05;;;7.40;54.40;;;;;;6268710;28;20031;-70
2022/02/01 07:30:51;;;;;;;2.90;1.02;;;7.40;54.10;;;;;;6268460;28;20527;-71
2022/02/01 07:33:52;;;;;;;4.68;1.27;;;7.40;54.10;;;;;;6269743;28;20122;-68
2022/02/01 07:36:53;;;;;;;1.60;0.98;;;7.40;54.00;;;;;;6268388;28;20036;-69
2022/02/01 07:39:54;;;;;;;6.30;1.27;;;7.40;54.10;;;;;;6269161;28;20059;-70
2022/02/01 07:42:56;;;;;;;4.68;1.15;;;7.40;54.10;;;;;;6248219;28;20134;-70
2022/02/01 07:46:06;;;;;;;2.10;0.93;;;7.40;54.10;;;;;;6259149;28;20029;-70
2022/02/01 07:49:11;;;;;;;3.88;0.88;;;7.40;54.00;;;;;;6260708;28;20047;-70
2022/02/01 07:52:12;;;;;;;7.13;0.70;;;7.30;54.00;;;;;;6255924;28;20110;-70
2022/02/01 07:55:13;;;;;;;5.82;1.13;;;7.30;54.00;;;;;;6263197;28;20040;-71
2022/02/01 07:58:14;;;;;;;3.92;1.17;;;7.30;53.80;;;;;;6266128;28;20055;-70
2022/02/01 08:01:15;;;;;;;3.45;1.00;;;7.40;53.90;;;;;;6256122;28;20037;-70
2022/02/01 08:04:16;;;;;;;7.55;1.30;;;7.40;53.80;;;;;;6256277;28;20139;-70
2022/02/01 08:07:17;;;;;;;2.55;0.77;;;7.40;53.90;;;;;;6254953;28;21477;-69
2022/02/01 08:10:18;;;;;;;3.08;1.20;;;7.50;53.80;;;;;;6258094;28;20032;-71
2022/02/01 08:16:46;;;;;;;10.05;1.50;;;7.60;53.60;;;;;;6270627;28;20036;-69
2022/02/01 08:20:05;;;;;;;2.97;1.00;;;7.70;53.60;;;;;;6258077;28;20033;-71
2022/02/01 08:23:05;;;;;;;2.33;1.17;;;7.80;53.40;;;;;;6258750;28;20428;-71
2022/02/01 08:26:06;;;;;;;12.50;1.33;;;8.00;53.40;;;;;;6258281;28;20032;-71
2022/02/01 08:29:08;;;;;;;6.15;1.27;;;8.00;53.30;;;;;;6261799;28;20033;-70
2022/02/01 08:32:09;;;;;;;1.98;1.15;;;8.10;53.10;;;;;;6264948;28;20032;-71
2022/02/01 08:35:10;;;;;;;2.50;0.73;;;8.10;53.10;;;;;;6266995;28;20035;-71
2022/02/01 08:38:11;;;;;;;8.32;1.60;;;8.20;53.00;;;;;;6265690;28;20029;-70
2022/02/01 08:41:12;;;;;;;2.70;0.98;;;8.30;52.90;;;;;;6268443;28;20032;-70
2022/02/01 08:44:15;;;;;;;9.68;0.82;;;8.30;52.70;;;;;;6274051;28;20044;-72
2022/02/01 08:47:16;;;;;;;4.65;1.17;;;8.40;52.60;;;;;;6253180;28;20040;-71
2022/02/01 08:50:21;;;;;;;3.70;1.33;;;8.40;52.60;;;;;;6263646;28;20055;-71
2022/02/01 08:53:24;;;;;;;2.58;1.05;;;8.40;52.70;;;;;;6268279;28;20035;-70
2022/02/01 08:59:45;;;;;;;2.75;0.80;;;8.60;52.20;;;;;;6271117;28;20072;-71
2022/02/01 09:02:46;;;;;;;3.97;1.10;;;8.60;51.90;;;;;;6274649;28;20045;-70
2022/02/01 09:05:51;;;;;;;6.30;1.63;;;8.70;51.90;;;;;;6281050;28;20033;-71
2022/02/01 09:08:52;;;;;;;2.60;0.80;;;8.80;51.70;;;;;;6256419;28;20119;-71
2022/02/01 09:11:53;;;;;;;4.38;1.27;;;8.80;51.60;;;;;;6247739;28;20094;-72
2022/02/01 09:14:55;;;;;;;2.65;0.60;;;8.90;51.60;;;;;;6266056;28;20040;-72
2022/02/01 09:17:56;;;;;;;6.40;1.10;;;8.80;51.30;;;;;;6270653;28;20033;-71
2022/02/01 09:20:58;;;;;;;5.45;1.10;;;8.80;51.20;;;;;;6267457;28;20044;-70
2022/02/01 09:23:59;;;;;;;3.00;1.27;;;8.80;51.00;;;;;;6244927;28;20025;-71
2022/02/01 09:27:00;;;;;;;5.25;1.20;;;8.80;51.10;;;;;;6248254;28;20449;-71
2022/02/01 09:30:02;;;;;;;7.95;1.10;;;8.80;51.00;;;;;;6237074;28;20068;-70
2022/02/01 09:33:03;;;;;;;4.13;0.75;;;8.70;51.00;;;;;;6244735;28;20033;-70
2022/02/01 09:36:05;;;;;;;8.55;1.55;;;8.70;51.10;;;;;;6247668;28;20048;-70
2022/02/01 09:39:08;;;;;;;34.03;9.65;;;9.00;51.40;;;;;;6249659;28;20032;-70
2022/02/01 09:42:09;;;;;;;9.27;1.48;;;8.80;51.30;;;;;;6272911;28;20028;-71
2022/02/01 09:45:10;;;;;;;9.95;1.48;;;8.90;51.40;;;;;;6252317;28;20032;-72
2022/02/01 09:48:11;;;;;;;4.70;1.52;;;8.90;51.00;;;;;;6279220;28;20021;-70
2022/02/01 09:51:12;;;;;;;6.25;1.48;;;9.00;51.00;;;;;;6255083;28;20508;-71
2022/02/01 09:54:13;;;;;;;5.30;1.27;;;9.00;51.20;;;;;;6251072;28;20032;-70
2022/02/01 09:57:14;;;;;;;4.88;1.33;;;9.10;51.10;;;;;;6251676;28;20444;-71
2022/02/01 10:00:20;;;;;;;8.93;1.38;;;9.10;51.10;;;;;;6258886;28;20123;-71
2022/02/01 10:03:22;;;;;;;12.68;1.52;;;9.10;50.90;;;;;;6223906;28;21710;-71
2022/02/01 10:06:22;;;;;;;3.30;0.77;;;9.20;50.90;;;;;;6252533;28;20338;-72
2022/02/01 10:09:23;;;;;;;1.88;1.00;;;9.20;50.70;;;;;;6253812;28;20052;-72
2022/02/01 10:12:29;;;;;;;4.35;1.33;;;9.30;50.80;;;;;;6252600;28;20397;-70
2022/02/01 10:15:34;;;;;;;2.50;0.90;;;9.40;50.70;;;;;;6257958;28;20119;-70
2022/02/01 10:18:35;;;;;;;2.10;1.00;;;9.50;50.40;;;;;;6252348;28;20983;-72
2022/02/01 10:22:00;;;;;;;4.45;1.25;;;9.60;50.60;;;;;;6250972;28;20036;-72
2022/02/01 10:25:05;;;;;;;4.93;1.25;;;9.80;50.00;;;;;;6245603;28;20120;-71
2022/02/01 10:28:11;;;;;;;10.52;1.30;;;10.10;49.20;;;;;;6261447;28;20029;-71
2022/02/01 10:31:18;;;;;;;10.13;1.48;;;10.40;48.80;;;;;;6283936;28;20032;-72
2022/02/01 10:34:39;;;;;;;7.57;0.82;;;10.60;48.20;;;;;;6284006;28;20371;-72
2022/02/01 10:37:40;;;;;;;4.10;1.02;;;10.80;48.10;;;;;;6270215;28;20461;-71
2022/02/01 10:40:42;;;;;;;6.82;0.98;;;10.90;47.60;;;;;;6279539;28;20024;-72
2022/02/01 10:43:45;;;;;;;1.63;0.63;;;11.00;47.90;;;;;;6271303;28;20021;-71
2022/02/01 10:46:54;;;;;;;1.95;0.80;;;11.00;47.80;;;;;;6254546;28;20025;-71
2022/02/01 10:49:55;;;;;;;2.20;0.73;;;11.00;47.60;;;;;;6271273;28;20017;-71
2022/02/01 10:52:56;;;;;;;2.17;0.90;;;11.00;47.30;;;;;;6265908;28;20028;-71
2022/02/01 10:56:00;;;;;;;2.95;1.00;;;11.00;47.30;;;;;;6266657;28;20080;-71
2022/02/01 10:59:01;;;;;;;4.55;1.42;;;10.90;46.80;;;;;;6266654;28;20063;-71
2022/02/01 11:02:03;;;;;;;3.15;1.30;;;10.90;46.60;;;;;;6248427;28;20210;-71
2022/02/01 11:05:06;;;;;;;5.10;0.82;;;10.90;46.60;;;;;;6262858;28;20025;-70
2022/02/01 11:08:12;;;;;;;3.45;0.90;;;11.00;46.90;;;;;;6246455;28;20104;-71
2022/02/01 11:11:18;;;;;;;5.03;1.05;;;11.20;46.20;;;;;;6264446;28;20025;-71
2022/02/01 11:14:24;;;;;;;2.42;1.02;;;11.30;46.00;;;;;;6246443;28;20151;-71
2022/02/01 11:17:25;;;;;;;3.80;1.02;;;11.60;45.30;;;;;;6236316;28;20044;-71
2022/02/01 11:20:28;;;;;;;4.65;0.98;;;11.90;44.70;;;;;;6247540;28;20041;-73
2022/02/01 11:24:11;;;;;;;7.85;1.17;;;12.20;44.20;;;;;;6253747;28;20032;-71
2022/02/01 11:27:18;;;;;;;5.38;1.17;;;12.60;43.60;;;;;;6276032;28;20033;-71
2022/02/01 11:30:23;;;;;;;13.38;1.10;;;12.90;42.90;;;;;;6249814;28;20040;-71
2022/02/01 11:33:39;;;;;;;6.13;2.15;;;13.20;41.60;;;;;;6271697;28;20465;-73
2022/02/01 11:36:41;;;;;;;2.95;1.45;;;13.50;41.30;;;;;;6241396;28;20029;-72
2022/02/01 11:39:53;;;;;;;2.63;1.05;;;13.70;40.80;;;;;;6252716;28;20052;-72
2022/02/01 11:43:00;;;;;;;2.63;1.17;;;13.50;40.70;;;;;;6255383;28;20517;-75
2022/02/01 11:46:04;;;;;;;3.25;0.90;;;13.70;40.10;;;;;;6255151;28;20052;-72
2022/02/01 11:49:06;;;;;;;16.00;1.35;;;13.90;40.00;;;;;;6270560;28;20450;-71
2022/02/01 11:52:14;;;;;;;11.50;0.93;;;13.80;40.00;;;;;;6240193;28;20022;-71
2022/02/01 11:55:17;;;;;;;10.40;1.00;;;14.00;40.00;;;;;;6249650;28;20033;-71
2022/02/01 11:58:36;;;;;;;3.80;0.93;;;14.10;40.00;;;;;;6263923;28;20107;-71
2022/02/01 12:01:38;;;;;;;3.75;1.08;;;14.10;40.20;;;;;;6238304;28;20114;-70
2022/02/01 12:04:43;;;;;;;3.93;1.10;;;14.40;39.70;;;;;;6240735;28;20043;-71
2022/02/01 12:08:00;;;;;;;3.17;0.95;;;14.90;38.80;;;;;;6252874;28;20649;-72
2022/02/01 12:11:03;;;;;;;2.35;0.65;;;15.10;38.40;;;;;;6254917;28;20052;-74
2022/02/01 12:14:05;;;;;;;3.05;0.80;;;15.00;38.30;;;;;;6258000;28;20028;-71
2022/02/01 12:17:06;;;;;;;2.75;0.68;;;14.80;38.70;;;;;;6242319;28;20109;-72
2022/02/01 12:20:14;;;;;;;2.42;1.13;;;14.90;39.00;;;;;;6243022;28;20029;-71
2022/02/01 12:23:22;;;;;;;1.55;0.52;;;14.80;38.50;;;;;;6247552;28;20098;-71
2022/02/01 12:26:30;;;;;;;1.63;0.60;;;14.70;38.30;;;;;;6257417;28;20123;-72
2022/02/01 12:29:31;;;;;;;0.70;0.63;;;14.50;38.30;;;;;;6260595;28;20109;-72
2022/02/01 12:32:33;;;;;;;2.70;0.95;;;14.40;38.60;;;;;;6257737;28;20650;-72
2022/02/01 12:35:37;;;;;;;1.13;0.90;;;14.40;38.50;;;;;;6255399;28;20730;-73
2022/02/01 12:38:40;;;;;;;2.33;0.88;;;14.30;38.60;;;;;;6257776;28;20028;-71
2022/02/01 12:41:54;;;;;;;5.68;1.17;;;14.30;38.80;;;;;;6254862;28;20056;-71
2022/02/01 12:48:04;;;;;;;8.18;1.48;;;14.10;38.60;;;;;;6243603;28;20032;-71
2022/02/01 12:51:06;;;;;;;10.65;1.48;;;14.00;38.80;;;;;;6233158;28;20159;-72
2022/02/01 12:54:07;;;;;;;4.10;1.10;;;13.90;39.00;;;;;;6236050;28;20451;-72
2022/02/01 12:57:15;;;;;;;9.45;1.38;;;13.80;39.20;;;;;;6230005;28;20594;-72
2022/02/01 13:00:17;;;;;;;6.03;1.20;;;13.80;39.40;;;;;;6229991;28;20595;-72
2022/02/01 13:03:18;;;;;;;1.60;0.98;;;13.70;39.40;;;;;;6248170;28;20079;-70
2022/02/01 13:06:20;;;;;;;3.97;1.38;;;13.70;39.50;;;;;;6244614;28;20056;-71
2022/02/01 13:15:54;;;;;;;5.45;1.17;;;13.60;39.90;;;;;;6254684;28;20119;-71
2022/02/01 13:22:10;;;;;;;4.22;0.98;;;13.40;40.00;;;;;;6260777;28;20017;-72
2022/02/01 13:25:13;;;;;;;2.55;0.95;;;13.50;40.30;;;;;;6252511;28;20131;-71
2022/02/01 13:28:15;;;;;;;7.60;2.65;;;13.40;40.00;;;;;;6254789;28;20021;-72
2022/02/01 13:31:19;;;;;;;6.57;1.10;;;13.30;40.20;;;;;;6219486;28;20170;-72
2022/02/01 13:34:28;;;;;;;4.13;1.10;;;13.30;40.50;;;;;;6260315;28;20637;-71
2022/02/01 13:37:29;;;;;;;5.35;1.02;;;13.30;40.40;;;;;;6230806;28;20094;-71
2022/02/01 13:40:31;;;;;;;4.72;1.42;;;13.30;40.50;;;;;;6263621;28;20028;-71
2022/02/01 13:43:32;;;;;;;4.88;1.08;;;13.30;40.50;;;;;;6253256;28;20040;-71
2022/02/01 13:46:33;;;;;;;5.80;1.13;;;13.20;40.30;;;;;;6253463;28;20108;-71
2022/02/01 13:49:36;;;;;;;2.47;1.17;;;13.10;40.30;;;;;;6236687;28;20025;-71
2022/02/01 13:52:38;;;;;;;5.15;1.25;;;13.00;40.50;;;;;;6227122;28;20072;-71
2022/02/01 13:55:40;;;;;;;3.65;1.08;;;13.00;40.50;;;;;;6247187;28;20366;-71
2022/02/01 13:58:43;;;;;;;7.45;0.95;;;13.00;40.60;;;;;;6244469;28;20037;-72
2022/02/01 14:01:45;;;;;;;5.50;1.33;;;13.10;40.80;;;;;;6237125;28;20366;-71
2022/02/01 14:04:51;;;;;;;1.77;0.90;;;13.20;40.90;;;;;;6238419;28;20049;-71
2022/02/01 14:14:19;;;;;;;9.25;1.02;;;13.40;40.30;;;;;;6267637;28;20033;-72
2022/02/01 14:36:50;;;;;;;4.13;0.85;;;13.10;40.30;;;;;;6272230;28;20115;-71
2022/02/01 14:46:20;;;;;;;12.18;1.13;;;13.10;40.50;;;;;;6269895;28;20028;-72
2022/02/01 14:49:24;;;;;;;8.00;1.45;;;13.00;40.50;;;;;;6268524;28;20120;-72
2022/02/01 14:52:28;;;;;;;2.95;1.00;;;12.90;40.70;;;;;;6266176;28;20032;-70
2022/02/01 14:55:35;;;;;;;3.97;1.10;;;12.80;41.00;;;;;;6266564;28;20457;-72
2022/02/01 15:03:45;;;;;;;5.80;1.70;;;12.60;41.10;;;;;;6274978;28;20032;-74
2022/02/01 15:12:07;;;;;;;5.03;1.35;;;12.30;41.60;;;;;;6247890;28;20029;-71
2022/02/01 15:15:09;;;;;;;5.80;1.38;;;12.20;41.70;;;;;;6243568;28;20033;-71
2022/02/01 15:18:09;;;;;;;3.60;0.90;;;12.10;42.00;;;;;;6243717;28;20087;-72
2022/02/01 15:21:12;;;;;;;8.98;1.52;;;12.10;42.10;;;;;;6246629;28;20464;-71
2022/02/01 15:24:13;;;;;;;6.28;1.00;;;12.00;42.10;;;;;;6244185;28;20033;-71
2022/02/01 15:27:15;;;;;;;3.03;1.40;;;12.10;42.20;;;;;;6236078;28;20040;-71
2022/02/01 15:30:16;;;;;;;8.15;0.88;;;12.00;42.20;;;;;;6248286;28;20105;-70
2022/02/01 15:33:17;;;;;;;5.20;1.30;;;12.00;42.40;;;;;;6278701;28;20040;-71
2022/02/01 15:36:18;;;;;;;6.70;1.20;;;11.90;42.30;;;;;;6280566;28;20044;-71
2022/02/01 15:58:58;;;;;;;7.28;1.40;;;11.40;43.30;;;;;;6263341;28;20040;-71
2022/02/01 16:02:17;;;;;;;7.63;1.50;;;11.40;43.60;;;;;;6237720;28;20043;-72
2022/02/01 16:05:20;;;;;;;14.00;1.50;;;11.40;43.80;;;;;;6252449;28;20139;-71
2022/02/01 16:08:27;;;;;;;6.18;1.20;;;11.40;44.00;;;;;;6254941;28;20108;-72
2022/02/01 16:11:28;;;;;;;6.22;1.58;;;11.40;44.00;;;;;;6257585;28;20526;-70
2022/02/01 16:14:29;;;;;;;6.20;1.63;;;11.40;44.70;;;;;;6234623;28;20085;-71
2022/02/01 16:17:30;;;;;;;5.47;1.60;;;11.40;44.70;;;;;;6231393;28;20028;-71
2022/02/01 16:20:31;;;;;;;6.97;1.35;;;11.40;44.10;;;;;;6216204;28;20113;-72
2022/02/01 16:23:32;;;;;;;4.82;1.25;;;11.40;44.20;;;;;;6232553;28;20111;-71
2022/02/01 16:26:33;;;;;;;5.93;1.30;;;11.50;44.30;;;;;;6251269;28;20040;-71
2022/02/01 16:29:34;;;;;;;6.15;1.17;;;11.50;44.20;;;;;;6258880;28;20032;-71
2022/02/01 16:32:35;;;;;;;3.25;1.08;;;11.40;44.10;;;;;;6262671;28;20043;-72
2022/02/01 16:35:36;;;;;;;9.80;1.45;;;11.40;44.20;;;;;;6264679;28;20484;-72
2022/02/01 16:38:38;;;;;;;4.35;1.30;;;11.40;44.30;;;;;;6257378;28;20032;-70
2022/02/01 16:41:41;;;;;;;7.93;1.30;;;11.50;44.40;;;;;;6247606;28;20112;-71
2022/02/01 16:44:42;;;;;;;4.47;1.35;;;11.40;44.40;;;;;;6243742;28;20636;-72
2022/02/01 16:47:43;;;;;;;4.38;1.60;;;11.40;44.50;;;;;;6246418;28;20024;-71
2022/02/01 16:50:43;;;;;;;5.30;1.30;;;11.40;44.50;;;;;;6270301;28;20364;-72
2022/02/01 16:53:49;;;;;;;6.30;1.30;;;11.30;44.50;;;;;;6258259;28;20060;-72
2022/02/01 16:56:54;;;;;;;6.75;0.82;;;11.30;44.00;;;;;;6278846;28;20352;-72
2022/02/01 16:59:57;;;;;;;3.05;1.00;;;11.20;43.50;;;;;;6261353;28;20032;-71
2022/02/01 17:02:59;;;;;;;1.83;0.98;;;11.20;43.70;;;;;;6268333;28;20102;-71
2022/02/01 17:06:00;;;;;;;1.98;0.77;;;11.20;43.50;;;;;;6249339;28;20536;-72
2022/02/01 17:09:03;;;;;;;3.08;0.80;;;11.20;43.50;;;;;;6268956;28;20009;-72
2022/02/01 17:12:14;;;;;;;6.30;1.00;;;11.30;43.60;;;;;;6262066;28;20539;-71
2022/02/01 17:15:33;;;;;;;10.40;2.05;;;11.30;43.10;;;;;;6247882;28;20234;-71
2022/02/01 17:21:39;;;;;;;7.53;1.60;;;11.30;43.00;;;;;;6248420;28;20060;-72
2022/02/01 17:24:41;;;;;;;3.75;1.05;;;11.50;43.30;;;;;;6261099;28;20594;-72
2022/02/01 17:27:42;;;;;;;10.43;1.60;;;11.50;43.60;;;;;;6265516;28;20048;-72
2022/02/01 17:30:42;;;;;;;7.82;1.75;;;11.50;43.80;;;;;;6245368;28;20025;-72
2022/02/01 17:33:44;;;;;;;6.57;1.70;;;11.50;44.00;;;;;;6241198;28;20120;-72
2022/02/01 17:36:45;;;;;;;7.00;2.30;;;11.50;44.00;;;;;;6268161;28;20260;-71
2022/02/01 17:39:46;;;;;;;6.68;1.27;;;11.50;44.10;;;;;;6268444;28;20032;-71
2022/02/01 17:42:50;;;;;;;6.80;1.95;;;11.50;44.20;;;;;;6245726;28;20053;-71
2022/02/01 17:45:50;;;;;;;5.05;2.15;;;11.40;44.40;;;;;;6258207;28;20080;-72
2022/02/01 17:48:52;;;;;;;8.48;2.15;;;11.40;44.60;;;;;;6262189;28;20027;-71
2022/02/01 17:52:15;;;;;;;8.27;2.50;;;11.40;44.60;;;;;;6258595;28;20053;-73
2022/02/01 17:55:15;;;;;;;7.72;1.70;;;11.30;44.70;;;;;;6264472;28;20041;-72
2022/02/01 17:58:17;;;;;;;13.50;2.55;;;11.30;44.80;;;;;;6241120;28;20033;-70
2022/02/01 18:01:18;;;;;;;11.75;2.22;;;11.20;45.10;;;;;;6255111;28;20032;-71
2022/02/01 18:04:19;;;;;;;12.20;2.72;;;11.10;45.20;;;;;;6244946;28;20665;-71
2022/02/01 18:07:22;;;;;;;5.03;1.80;;;11.00;45.40;;;;;;6251852;28;20059;-72
2022/02/01 18:10:24;;;;;;;10.55;2.60;;;11.00;45.60;;;;;;6254805;28;20048;-71
2022/02/01 18:13:48;;;;;;;4.05;1.77;;;10.90;45.80;;;;;;6250969;28;20100;-70
2022/02/01 18:16:51;;;;;;;11.07;2.40;;;10.90;45.90;;;;;;6240381;28;20041;-71
2022/02/01 18:19:53;;;;;;;7.18;2.83;;;10.90;46.10;;;;;;6252685;28;20036;-74
2022/02/01 18:22:54;;;;;;;11.32;2.53;;;10.90;46.30;;;;;;6246612;28;20078;-72
2022/02/01 18:25:56;;;;;;;12.02;3.30;;;10.90;46.50;;;;;;6257789;28;20374;-73
2022/02/01 18:28:59;;;;;;;6.00;2.15;;;10.90;46.60;;;;;;6259304;28;20668;-73
2022/02/01 18:32:00;;;;;;;7.55;2.63;;;10.80;46.70;;;;;;6272980;28;20481;-71
2022/02/01 18:35:01;;;;;;;7.28;2.25;;;10.80;46.80;;;;;;6269545;28;20031;-71
2022/02/01 18:38:05;;;;;;;14.20;2.70;;;10.80;46.90;;;;;;6267785;28;20021;-71
2022/02/01 18:41:07;;;;;;;8.52;2.22;;;10.80;47.20;;;;;;6272846;28;20401;-71
2022/02/01 18:44:14;;;;;;;10.77;2.78;;;10.80;47.40;;;;;;6280726;28;20665;-71